Time;durP1;ratioP1;P1;durP2;ratioP2;P2;SDS_P1;SDS_P2;PMS_P1;PMS_P2;Temp;Humidity;BMP_temperature;BMP_pressure;BME280_temperature;BME280_humidity;BME280_pressure;Samples;Min_cycle;Max_cycle;Signal;HPM_P1;HPM_P2
2022/03/02 00:01:18;;;;;;;30.88;20.60;;;3.70;99.90;;;;;;5000211;28;20225;-69
2022/03/02 00:03:46;;;;;;;30.88;20.48;;;3.60;99.90;;;;;;5001373;28;20202;-69
2022/03/02 00:06:14;;;;;;;26.25;19.95;;;3.50;99.90;;;;;;5001329;28;20206;-69
2022/03/02 00:08:42;;;;;;;33.17;21.30;;;3.50;99.90;;;;;;5001136;28;20368;-69
2022/03/02 00:11:11;;;;;;;31.38;20.13;;;3.40;99.90;;;;;;5001632;28;20196;-67
2022/03/02 00:13:40;;;;;;;27.08;18.63;;;3.40;99.90;;;;;;5001597;28;20869;-67
2022/03/02 00:16:09;;;;;;;30.90;19.42;;;3.40;99.90;;;;;;5001658;28;20199;-69
2022/03/02 00:18:37;;;;;;;31.48;19.92;;;3.40;99.90;;;;;;5003254;28;20303;-68
2022/03/02 00:21:05;;;;;;;31.30;18.48;;;3.40;99.90;;;;;;5001124;28;20219;-68
2022/03/02 00:23:33;;;;;;;30.52;20.15;;;3.40;99.90;;;;;;5001120;28;20203;-69
2022/03/02 00:26:01;;;;;;;28.05;18.98;;;3.40;99.90;;;;;;5002495;28;20213;-68
2022/03/02 00:28:29;;;;;;;30.38;19.80;;;3.40;99.90;;;;;;5002163;28;20222;-68
2022/03/02 00:30:58;;;;;;;31.20;19.58;;;3.30;99.90;;;;;;5001602;28;20210;-69
2022/03/02 00:33:26;;;;;;;32.55;20.73;;;3.30;99.90;;;;;;5001964;28;20203;-68
2022/03/02 00:35:54;;;;;;;26.23;18.92;;;3.40;99.90;;;;;;5000381;28;20211;-68
2022/03/02 00:38:22;;;;;;;31.05;20.30;;;3.50;99.90;;;;;;5002445;28;20199;-68
2022/03/02 00:40:50;;;;;;;31.13;19.90;;;3.50;99.90;;;;;;5003109;28;20226;-68
2022/03/02 00:43:19;;;;;;;27.70;18.38;;;3.50;99.90;;;;;;5001850;28;20209;-68
2022/03/02 00:45:46;;;;;;;31.98;19.55;;;3.50;99.90;;;;;;5000376;28;20229;-68
2022/03/02 00:48:16;;;;;;;27.92;18.00;;;3.50;99.90;;;;;;5002433;28;20207;-68
2022/03/02 00:50:45;;;;;;;29.63;18.73;;;3.60;99.90;;;;;;5000371;28;20228;-67
2022/03/02 00:53:13;;;;;;;26.27;17.73;;;3.70;99.90;;;;;;5000350;28;20210;-67
2022/03/02 00:55:41;;;;;;;27.38;19.63;;;3.70;99.90;;;;;;5000299;28;20211;-66
2022/03/02 00:58:09;;;;;;;24.17;18.13;;;3.60;99.90;;;;;;4999584;28;20834;-67
2022/03/02 01:00:37;;;;;;;26.20;17.85;;;3.60;99.90;;;;;;5000216;28;20226;-66
2022/03/02 01:03:05;;;;;;;27.20;19.42;;;3.60;99.90;;;;;;5000035;28;20210;-67
2022/03/02 01:05:34;;;;;;;29.58;19.88;;;3.50;99.90;;;;;;4999944;28;20207;-67
2022/03/02 01:08:02;;;;;;;30.70;19.23;;;3.50;99.90;;;;;;5000145;28;20791;-68
2022/03/02 01:10:30;;;;;;;35.60;21.60;;;3.40;99.90;;;;;;4999553;28;20249;-68
2022/03/02 01:12:58;;;;;;;31.98;20.13;;;3.40;99.90;;;;;;5000170;28;20194;-67
2022/03/02 01:15:25;;;;;;;36.40;21.08;;;3.30;99.90;;;;;;5000090;28;20217;-68
2022/03/02 01:17:53;;;;;;;28.50;19.88;;;3.40;99.90;;;;;;4999665;28;20206;-66
2022/03/02 01:20:21;;;;;;;30.70;18.48;;;3.50;99.90;;;;;;5000075;28;20230;-65
2022/03/02 01:22:50;;;;;;;32.17;21.02;;;3.50;99.90;;;;;;5000363;28;20213;-66
2022/03/02 01:25:18;;;;;;;28.15;19.23;;;3.50;99.90;;;;;;4998978;28;20834;-66
2022/03/02 01:27:46;;;;;;;32.38;22.23;;;3.50;99.90;;;;;;4999806;28;20203;-65
2022/03/02 01:30:14;;;;;;;26.98;18.58;;;3.60;99.90;;;;;;4999820;28;20261;-65
2022/03/02 01:32:42;;;;;;;28.67;19.40;;;3.60;99.90;;;;;;4999090;28;20227;-65
2022/03/02 01:35:11;;;;;;;25.95;18.92;;;3.70;99.90;;;;;;4999594;28;20202;-66
2022/03/02 01:37:39;;;;;;;28.70;18.70;;;3.60;99.90;;;;;;4999659;28;20476;-65
2022/03/02 01:40:10;;;;;;;30.80;19.48;;;3.70;99.90;;;;;;4999623;28;20214;-65
2022/03/02 01:42:38;;;;;;;28.77;19.67;;;3.70;99.90;;;;;;4999594;28;20209;-66
2022/03/02 01:45:08;;;;;;;28.48;18.90;;;3.70;99.90;;;;;;4999887;28;20218;-66
2022/03/02 01:47:35;;;;;;;26.65;18.10;;;3.70;99.90;;;;;;4999502;28;20687;-65
2022/03/02 01:50:04;;;;;;;25.23;19.02;;;3.80;99.90;;;;;;4999341;28;20219;-67
2022/03/02 01:52:32;;;;;;;29.02;17.52;;;3.80;99.90;;;;;;4999536;28;20682;-67
2022/03/02 01:55:00;;;;;;;26.70;18.35;;;3.90;99.90;;;;;;4998972;28;20789;-67
2022/03/02 01:57:29;;;;;;;25.20;17.35;;;3.90;99.90;;;;;;4999186;28;20246;-67
2022/03/02 01:59:57;;;;;;;28.90;18.60;;;4.00;99.90;;;;;;4999140;28;20230;-67
2022/03/02 02:02:25;;;;;;;25.98;17.92;;;4.00;99.90;;;;;;4999154;28;20943;-68
2022/03/02 02:04:53;;;;;;;26.55;17.77;;;4.00;99.90;;;;;;4999253;28;20293;-68
2022/03/02 02:07:22;;;;;;;28.55;16.60;;;4.10;99.90;;;;;;4999532;28;20205;-68
2022/03/02 02:09:52;;;;;;;27.83;18.17;;;4.10;99.90;;;;;;4999548;28;20227;-68
2022/03/02 02:12:20;;;;;;;27.08;19.15;;;4.00;99.90;;;;;;4999410;28;20206;-67
2022/03/02 02:14:49;;;;;;;29.45;18.13;;;4.00;99.90;;;;;;4998817;28;20205;-67
2022/03/02 02:17:18;;;;;;;27.42;18.73;;;4.00;99.90;;;;;;4998511;28;20221;-68
2022/03/02 02:19:45;;;;;;;26.80;17.13;;;4.00;99.90;;;;;;4999004;28;20308;-68
2022/03/02 02:22:15;;;;;;;27.90;17.60;;;4.00;99.90;;;;;;4998888;28;20230;-67
2022/03/02 02:24:42;;;;;;;31.73;19.90;;;3.90;99.90;;;;;;4997862;28;20753;-67
2022/03/02 02:27:11;;;;;;;26.88;17.98;;;3.80;99.90;;;;;;5000866;28;20690;-67
2022/03/02 02:29:40;;;;;;;32.00;19.05;;;3.80;99.90;;;;;;4999490;28;20377;-67
2022/03/02 02:32:08;;;;;;;26.27;19.00;;;3.70;99.90;;;;;;5002598;28;20203;-66
2022/03/02 02:34:36;;;;;;;35.08;20.67;;;3.70;99.90;;;;;;5004944;28;20779;-68
2022/03/02 02:37:06;;;;;;;30.42;18.98;;;3.70;99.90;;;;;;5005271;28;20207;-68
2022/03/02 02:39:36;;;;;;;27.20;17.80;;;3.70;99.90;;;;;;5001693;28;20729;-67
2022/03/02 02:42:06;;;;;;;26.33;18.80;;;3.60;99.90;;;;;;5002659;28;20203;-68
2022/03/02 02:44:35;;;;;;;34.65;19.30;;;3.60;99.90;;;;;;5000948;28;20209;-69
2022/03/02 02:47:03;;;;;;;29.95;19.70;;;3.60;99.90;;;;;;5002128;28;20203;-68
2022/03/02 02:49:31;;;;;;;27.00;18.92;;;3.50;99.90;;;;;;5003988;28;20234;-67
2022/03/02 02:52:00;;;;;;;27.58;18.58;;;3.50;99.90;;;;;;5002735;28;20199;-68
2022/03/02 02:54:27;;;;;;;29.88;20.35;;;3.40;99.90;;;;;;5000385;28;20217;-67
2022/03/02 02:56:57;;;;;;;30.20;19.45;;;3.30;99.90;;;;;;5002234;28;20234;-65
2022/03/02 02:59:25;;;;;;;31.83;19.20;;;3.30;99.90;;;;;;5000105;28;20611;-67
2022/03/02 03:01:53;;;;;;;28.95;19.00;;;3.30;99.90;;;;;;4999787;28;20716;-67
2022/03/02 03:04:21;;;;;;;29.20;20.38;;;3.20;99.90;;;;;;5000391;28;20345;-67
2022/03/02 03:06:48;;;;;;;27.75;19.10;;;3.20;99.90;;;;;;5000008;28;20203;-67
2022/03/02 03:09:16;;;;;;;29.50;19.30;;;3.20;99.90;;;;;;5000329;28;20233;-68
2022/03/02 03:11:45;;;;;;;28.48;18.25;;;3.20;99.90;;;;;;4999630;28;20205;-66
2022/03/02 03:14:15;;;;;;;30.00;18.92;;;3.20;99.90;;;;;;4999744;28;20975;-66
2022/03/02 03:16:43;;;;;;;26.20;17.85;;;3.20;99.90;;;;;;4998826;28;20294;-67
2022/03/02 03:19:11;;;;;;;28.85;19.35;;;3.20;99.90;;;;;;4998043;28;20223;-67
2022/03/02 03:21:39;;;;;;;30.45;18.73;;;3.20;99.90;;;;;;4998602;28;20226;-67
2022/03/02 03:24:07;;;;;;;25.77;17.90;;;3.20;99.90;;;;;;4998154;28;20206;-68
2022/03/02 03:26:35;;;;;;;27.40;17.92;;;3.10;99.90;;;;;;4998793;28;20420;-68
2022/03/02 03:29:03;;;;;;;23.95;17.40;;;3.10;99.90;;;;;;4998411;28;20812;-68
2022/03/02 03:31:33;;;;;;;29.00;18.00;;;3.10;99.90;;;;;;4998102;28;20199;-68
2022/03/02 03:34:01;;;;;;;26.17;16.85;;;3.10;99.90;;;;;;4998638;28;20199;-67
2022/03/02 03:36:29;;;;;;;27.20;18.48;;;3.20;99.90;;;;;;5001149;28;20199;-68
2022/03/02 03:38:57;;;;;;;25.55;18.50;;;3.10;99.90;;;;;;5001869;28;20411;-67
2022/03/02 03:41:25;;;;;;;31.90;20.05;;;3.10;99.90;;;;;;5001858;28;20339;-67
2022/03/02 03:43:52;;;;;;;26.08;17.85;;;3.00;99.90;;;;;;5001442;28;20863;-66
2022/03/02 03:46:20;;;;;;;29.63;19.00;;;2.90;99.90;;;;;;5001628;28;20203;-67
2022/03/02 03:48:50;;;;;;;36.80;20.63;;;2.80;99.90;;;;;;5001865;28;20357;-67
2022/03/02 03:51:17;;;;;;;30.73;18.95;;;2.90;99.90;;;;;;5001846;28;20210;-67
2022/03/02 03:53:45;;;;;;;32.53;19.50;;;2.90;99.90;;;;;;5001593;28;20341;-67
2022/03/02 03:56:13;;;;;;;34.15;19.17;;;2.80;99.90;;;;;;5002073;28;20199;-67
2022/03/02 03:58:41;;;;;;;25.17;18.35;;;2.80;99.90;;;;;;5001638;28;20218;-67
2022/03/02 04:01:09;;;;;;;31.67;21.23;;;2.80;99.90;;;;;;5001618;28;20209;-66
2022/03/02 04:03:37;;;;;;;28.65;19.05;;;2.80;99.90;;;;;;5001265;28;20260;-65
2022/03/02 04:06:06;;;;;;;29.02;18.75;;;2.80;99.90;;;;;;5001588;28;20228;-66
2022/03/02 04:08:34;;;;;;;30.20;19.25;;;2.80;99.90;;;;;;5001275;28;20203;-66
2022/03/02 04:11:02;;;;;;;25.38;17.63;;;2.80;99.90;;;;;;5001261;28;20213;-68
2022/03/02 04:13:29;;;;;;;29.67;17.70;;;2.70;99.90;;;;;;5000911;28;20199;-68
2022/03/02 04:15:57;;;;;;;29.33;17.10;;;2.70;99.90;;;;;;5001074;28;20195;-68
2022/03/02 04:18:25;;;;;;;26.90;17.85;;;2.70;99.90;;;;;;5000825;28;20222;-67
2022/03/02 04:20:53;;;;;;;27.08;16.88;;;2.70;99.90;;;;;;5001296;28;20199;-68
2022/03/02 04:23:22;;;;;;;28.13;17.17;;;2.70;99.90;;;;;;5000638;28;20226;-68
2022/03/02 04:25:50;;;;;;;25.45;17.88;;;2.60;99.90;;;;;;5001200;28;20773;-66
2022/03/02 04:28:18;;;;;;;29.60;19.70;;;2.60;99.90;;;;;;5001137;28;20199;-67
2022/03/02 04:30:46;;;;;;;25.67;17.90;;;2.50;99.90;;;;;;5000289;28;20322;-66
2022/03/02 04:33:14;;;;;;;30.27;19.00;;;2.50;99.90;;;;;;5000329;28;20914;-66
2022/03/02 04:35:43;;;;;;;27.23;18.33;;;2.50;99.90;;;;;;5000776;28;20852;-66
2022/03/02 04:38:11;;;;;;;28.92;18.63;;;2.40;99.90;;;;;;5000257;28;20199;-67
2022/03/02 04:40:40;;;;;;;42.63;20.60;;;2.30;99.90;;;;;;5000538;28;20250;-67
2022/03/02 04:43:08;;;;;;;26.67;17.63;;;2.30;99.90;;;;;;5000597;28;20227;-67
2022/03/02 04:45:36;;;;;;;28.95;20.50;;;2.20;99.90;;;;;;5000874;28;20771;-67
2022/03/02 04:48:05;;;;;;;28.75;19.50;;;2.10;99.90;;;;;;5000155;28;20195;-67
2022/03/02 04:50:33;;;;;;;28.90;18.20;;;2.10;99.90;;;;;;5000727;28;20219;-66
2022/03/02 04:53:02;;;;;;;30.92;19.30;;;2.00;99.90;;;;;;5002165;28;20206;-66
2022/03/02 04:55:30;;;;;;;29.10;19.77;;;1.90;99.90;;;;;;5001091;28;20221;-66
2022/03/02 04:58:01;;;;;;;34.70;19.73;;;1.90;99.90;;;;;;5001060;28;20219;-66
2022/03/02 05:00:31;;;;;;;31.02;19.35;;;1.90;99.90;;;;;;5000442;28;20223;-67
2022/03/02 05:03:00;;;;;;;25.77;19.38;;;1.90;99.90;;;;;;5000398;28;20477;-66
2022/03/02 05:05:30;;;;;;;27.67;19.02;;;1.80;99.90;;;;;;5000095;28;20730;-67
2022/03/02 05:07:58;;;;;;;32.47;19.25;;;1.90;99.90;;;;;;4999857;28;20753;-66
2022/03/02 05:10:27;;;;;;;30.33;19.58;;;1.80;99.90;;;;;;4999807;28;20884;-67
2022/03/02 05:12:55;;;;;;;36.03;20.33;;;1.80;99.90;;;;;;5000003;28;20209;-66
2022/03/02 05:15:25;;;;;;;26.77;18.80;;;1.80;99.90;;;;;;4999965;28;20285;-66
2022/03/02 05:17:53;;;;;;;31.08;19.30;;;1.80;99.90;;;;;;4999634;28;20240;-66
2022/03/02 05:20:22;;;;;;;33.83;21.17;;;1.80;99.90;;;;;;4999950;28;20215;-66
2022/03/02 05:22:50;;;;;;;28.00;19.25;;;1.80;99.90;;;;;;4999392;28;20219;-65
2022/03/02 05:25:18;;;;;;;31.52;20.88;;;1.80;99.90;;;;;;4999954;28;20203;-66
2022/03/02 05:27:47;;;;;;;31.15;19.38;;;1.80;99.90;;;;;;4999981;28;20530;-66
2022/03/02 05:30:17;;;;;;;28.92;19.52;;;1.80;99.90;;;;;;4999469;28;20223;-68
2022/03/02 05:32:47;;;;;;;31.15;20.60;;;1.80;99.90;;;;;;5001819;28;20287;-68
2022/03/02 05:35:14;;;;;;;28.40;19.15;;;1.80;99.90;;;;;;5002234;28;20681;-68
2022/03/02 05:37:43;;;;;;;34.38;20.30;;;1.80;99.90;;;;;;5000149;28;20286;-69
2022/03/02 05:40:14;;;;;;;33.35;20.73;;;1.80;99.90;;;;;;5000552;28;20222;-69
2022/03/02 05:42:42;;;;;;;32.90;21.70;;;1.80;99.90;;;;;;5001080;28;20203;-68
2022/03/02 05:45:10;;;;;;;31.25;19.38;;;1.80;99.90;;;;;;5000939;28;20213;-67
2022/03/02 05:47:39;;;;;;;30.15;20.17;;;1.70;99.90;;;;;;4993297;28;20199;-68
2022/03/02 05:50:10;;;;;;;32.05;20.17;;;1.70;99.90;;;;;;5000112;28;20227;-67
2022/03/02 05:52:38;;;;;;;31.08;21.00;;;1.70;99.90;;;;;;4999667;28;20205;-66
2022/03/02 05:55:07;;;;;;;34.47;21.95;;;1.70;99.90;;;;;;4998763;28;20215;-66
2022/03/02 05:57:35;;;;;;;38.25;21.73;;;1.60;99.90;;;;;;4999262;28;20199;-66
2022/03/02 06:00:07;;;;;;;28.38;19.17;;;1.60;99.90;;;;;;4998590;28;20730;-64
2022/03/02 06:02:35;;;;;;;33.33;20.85;;;1.50;99.90;;;;;;4999483;28;20211;-67
2022/03/02 06:05:04;;;;;;;31.20;20.33;;;1.50;99.90;;;;;;4999003;28;20210;-64
2022/03/02 06:07:33;;;;;;;32.35;21.30;;;1.50;99.90;;;;;;4999314;28;20207;-65
2022/03/02 06:10:01;;;;;;;30.17;19.75;;;1.40;99.90;;;;;;4999096;28;20231;-64
2022/03/02 06:12:29;;;;;;;30.77;19.10;;;1.30;99.90;;;;;;4999286;28;20302;-64
2022/03/02 06:14:58;;;;;;;31.30;19.63;;;1.30;99.90;;;;;;4998887;28;20876;-66
2022/03/02 06:17:27;;;;;;;33.53;20.85;;;1.40;99.90;;;;;;4999049;28;20209;-66
2022/03/02 06:19:55;;;;;;;30.05;20.25;;;1.30;99.90;;;;;;4998973;28;20725;-66
2022/03/02 06:22:25;;;;;;;32.35;20.33;;;1.20;99.90;;;;;;4998844;28;20199;-66
2022/03/02 06:24:55;;;;;;;33.08;21.08;;;1.20;99.90;;;;;;4998453;28;20309;-66
2022/03/02 06:27:23;;;;;;;30.45;19.65;;;1.20;99.90;;;;;;4999085;28;20737;-66
2022/03/02 06:29:51;;;;;;;38.50;22.60;;;1.10;99.90;;;;;;4998650;28;20784;-66
2022/03/02 06:32:18;;;;;;;33.97;22.20;;;1.10;99.90;;;;;;4998324;28;20637;-67
2022/03/02 06:34:47;;;;;;;34.65;21.52;;;1.10;99.90;;;;;;4998717;28;20195;-66
2022/03/02 06:37:15;;;;;;;30.00;21.02;;;1.10;99.90;;;;;;4998248;28;20814;-65
2022/03/02 06:39:43;;;;;;;30.15;18.95;;;1.10;99.90;;;;;;4998650;28;20237;-66
2022/03/02 06:42:18;;;;;;;34.83;22.00;;;1.00;99.90;;;;;;4998347;28;20203;-66
2022/03/02 06:44:53;;;;;;;35.00;21.00;;;1.10;99.90;;;;;;4999084;28;20234;-66
2022/03/02 06:47:25;;;;;;;31.90;21.65;;;1.20;99.90;;;;;;4998542;28;20198;-67
2022/03/02 06:50:03;;;;;;;29.90;21.95;;;1.20;99.90;;;;;;4998122;28;20227;-67
2022/03/02 06:52:36;;;;;;;35.10;20.20;;;1.20;99.90;;;;;;4998785;28;20198;-64
2022/03/02 06:55:06;;;;;;;35.22;23.00;;;1.20;99.90;;;;;;4998395;28;20209;-66
2022/03/02 06:57:36;;;;;;;36.30;23.05;;;1.30;99.90;;;;;;4998529;28;20267;-67
2022/03/02 07:00:16;;;;;;;32.70;21.98;;;1.40;99.90;;;;;;4998110;28;20226;-67
2022/03/02 07:02:48;;;;;;;33.85;20.75;;;1.40;99.90;;;;;;4998553;28;20199;-67
2022/03/02 07:05:17;;;;;;;37.42;23.33;;;1.40;99.90;;;;;;4998722;28;20219;-66
2022/03/02 07:07:47;;;;;;;34.90;23.02;;;1.40;99.90;;;;;;4998475;28;20203;-66
2022/03/02 07:10:15;;;;;;;32.30;21.27;;;1.40;99.90;;;;;;4999784;28;20223;-66
2022/03/02 07:12:45;;;;;;;34.10;21.02;;;1.40;99.90;;;;;;5001842;28;20290;-67
2022/03/02 07:15:13;;;;;;;35.45;21.42;;;1.50;99.90;;;;;;5001118;28;20221;-67
2022/03/02 07:17:41;;;;;;;33.83;22.50;;;1.50;99.90;;;;;;5005310;28;20561;-65
2022/03/02 07:20:11;;;;;;;32.53;20.25;;;1.40;99.90;;;;;;5003273;28;20905;-64
2022/03/02 07:22:51;;;;;;;35.63;22.38;;;1.40;99.90;;;;;;5001678;28;20461;-67
2022/03/02 07:25:22;;;;;;;34.22;21.85;;;1.50;99.90;;;;;;5001681;28;20219;-67
2022/03/02 07:27:51;;;;;;;32.80;20.55;;;1.50;99.90;;;;;;5001438;28;20199;-67
2022/03/02 07:30:19;;;;;;;38.00;22.20;;;1.50;99.90;;;;;;5001652;28;20215;-67
2022/03/02 07:32:47;;;;;;;34.10;21.55;;;1.50;99.90;;;;;;5001908;28;20765;-67
2022/03/02 07:35:18;;;;;;;35.70;20.55;;;1.60;99.90;;;;;;5001822;28;20196;-70
2022/03/02 07:37:46;;;;;;;32.28;21.77;;;1.70;99.90;;;;;;5001486;28;20206;-70
2022/03/02 07:40:15;;;;;;;31.48;20.23;;;1.80;99.90;;;;;;5001406;28;20238;-70
2022/03/02 07:42:44;;;;;;;32.63;21.70;;;1.80;99.90;;;;;;5001321;28;20207;-70
2022/03/02 07:45:13;;;;;;;35.90;21.50;;;1.80;99.90;;;;;;5000954;28;20223;-69
2022/03/02 07:47:41;;;;;;;31.90;21.35;;;1.90;99.90;;;;;;5001066;28;20696;-70
2022/03/02 07:50:10;;;;;;;30.50;22.25;;;2.00;99.90;;;;;;5001822;28;20223;-69
2022/03/02 07:52:39;;;;;;;34.38;21.50;;;2.00;99.90;;;;;;5001106;28;20203;-68
2022/03/02 07:55:09;;;;;;;32.28;21.85;;;2.10;99.90;;;;;;5000235;28;20217;-69
2022/03/02 07:57:40;;;;;;;35.85;22.02;;;2.20;99.90;;;;;;4992520;28;20218;-69
2022/03/02 08:00:11;;;;;;;29.27;20.55;;;2.30;99.90;;;;;;5000030;28;20885;-70
2022/03/02 08:02:41;;;;;;;31.05;21.52;;;2.40;99.90;;;;;;5000075;28;20214;-68
2022/03/02 08:05:10;;;;;;;31.35;18.80;;;2.50;99.90;;;;;;5000052;28;20218;-70
2022/03/02 08:07:38;;;;;;;35.15;21.23;;;2.50;99.90;;;;;;5000857;28;20406;-68
2022/03/02 08:10:07;;;;;;;35.03;20.95;;;2.60;99.90;;;;;;5004755;28;20229;-69
2022/03/02 08:12:35;;;;;;;31.73;21.10;;;2.70;99.90;;;;;;5003033;28;20203;-69
2022/03/02 08:15:05;;;;;;;27.90;19.48;;;2.80;99.90;;;;;;5002004;28;20293;-70
2022/03/02 08:17:33;;;;;;;29.38;19.95;;;2.80;99.90;;;;;;5003410;28;20235;-70
2022/03/02 08:20:03;;;;;;;28.92;20.08;;;2.90;99.90;;;;;;5004539;28;20233;-69
2022/03/02 08:22:32;;;;;;;24.90;19.58;;;3.00;99.90;;;;;;5002761;28;20203;-68
2022/03/02 08:25:06;;;;;;;27.92;18.63;;;3.10;99.90;;;;;;5001826;28;20225;-70
2022/03/02 08:27:34;;;;;;;26.67;18.05;;;3.10;99.90;;;;;;5001284;28;20210;-70
2022/03/02 08:30:06;;;;;;;28.20;17.90;;;3.20;99.90;;;;;;5000298;28;20219;-70
2022/03/02 08:32:37;;;;;;;27.35;18.38;;;3.30;99.90;;;;;;5002064;28;20203;-70
2022/03/02 08:35:07;;;;;;;23.77;16.45;;;3.40;99.90;;;;;;5000709;28;20191;-69
2022/03/02 08:37:35;;;;;;;24.45;16.95;;;3.50;99.90;;;;;;5000753;28;20203;-70
2022/03/02 08:40:05;;;;;;;26.08;18.08;;;3.60;99.90;;;;;;5001817;28;20226;-70
2022/03/02 08:42:33;;;;;;;24.98;16.88;;;3.60;99.90;;;;;;5000365;28;20695;-69
2022/03/02 08:45:02;;;;;;;27.85;18.42;;;3.70;99.90;;;;;;5000807;28;20223;-70
2022/03/02 08:47:31;;;;;;;24.95;16.63;;;3.70;99.90;;;;;;5000634;28;20203;-70
2022/03/02 08:49:59;;;;;;;28.23;18.30;;;3.80;99.90;;;;;;5000262;28;20762;-69
2022/03/02 08:52:31;;;;;;;24.13;18.08;;;3.90;99.90;;;;;;5000213;28;20383;-69
2022/03/02 08:55:04;;;;;;;21.25;15.38;;;4.00;99.90;;;;;;5000091;28;20240;-69
2022/03/02 08:57:33;;;;;;;29.33;17.60;;;4.20;99.90;;;;;;5000384;28;20202;-70
2022/03/02 09:00:11;;;;;;;30.20;18.25;;;4.30;99.90;;;;;;5000334;28;20234;-70
2022/03/02 09:02:40;;;;;;;26.33;16.30;;;4.40;99.90;;;;;;4999737;28;20203;-68
2022/03/02 09:05:09;;;;;;;27.83;17.17;;;4.50;99.90;;;;;;5000008;28;20234;-69
2022/03/02 09:07:38;;;;;;;22.95;16.73;;;4.60;99.90;;;;;;4999946;28;20285;-70
2022/03/02 09:10:07;;;;;;;27.63;17.88;;;4.60;99.90;;;;;;5000464;28;20211;-70
2022/03/02 09:12:35;;;;;;;28.15;18.88;;;4.70;99.90;;;;;;4999831;28;20202;-69
2022/03/02 09:15:04;;;;;;;25.73;19.23;;;4.70;99.90;;;;;;4999996;28;20213;-70
2022/03/02 09:17:32;;;;;;;24.42;18.25;;;4.80;99.90;;;;;;5000167;28;20286;-69
2022/03/02 09:20:00;;;;;;;26.52;17.75;;;4.90;99.90;;;;;;4999642;28;20231;-69
2022/03/02 09:22:29;;;;;;;24.20;18.02;;;4.90;99.90;;;;;;5000186;28;20233;-70
2022/03/02 09:24:59;;;;;;;28.70;18.77;;;5.00;99.90;;;;;;4999787;28;20310;-70
2022/03/02 09:27:31;;;;;;;28.13;16.83;;;5.00;99.90;;;;;;4999822;28;20372;-70
2022/03/02 09:30:02;;;;;;;26.75;18.88;;;5.10;99.90;;;;;;5000298;28;20237;-70
2022/03/02 09:32:32;;;;;;;28.95;18.58;;;5.10;99.90;;;;;;4999560;28;20207;-70
2022/03/02 09:35:00;;;;;;;22.75;16.17;;;5.10;99.90;;;;;;4999460;28;20202;-70
2022/03/02 09:37:32;;;;;;;23.02;17.35;;;5.20;99.90;;;;;;5003881;28;20207;-70
2022/03/02 09:40:05;;;;;;;27.00;17.05;;;5.30;99.90;;;;;;5006509;28;20223;-70
2022/03/02 09:42:40;;;;;;;25.25;17.63;;;5.30;99.90;;;;;;5009532;28;20307;-70
2022/03/02 09:45:10;;;;;;;25.73;16.92;;;5.40;99.90;;;;;;5007363;28;20306;-70
2022/03/02 09:47:44;;;;;;;22.35;15.98;;;5.50;99.90;;;;;;5005697;28;20777;-70
2022/03/02 09:50:14;;;;;;;28.25;18.65;;;5.60;99.90;;;;;;5011127;28;20218;-70
2022/03/02 09:52:44;;;;;;;24.58;15.40;;;5.60;99.90;;;;;;5004706;28;20294;-70
2022/03/02 09:55:15;;;;;;;25.80;17.02;;;5.70;99.90;;;;;;5001841;28;20295;-70
2022/03/02 09:57:45;;;;;;;22.02;16.23;;;5.70;99.90;;;;;;5000489;28;20195;-70
2022/03/02 10:00:18;;;;;;;18.67;14.02;;;5.80;99.90;;;;;;4999783;28;20258;-70
2022/03/02 10:02:50;;;;;;;17.88;14.55;;;5.80;99.90;;;;;;4999547;28;20299;-70
2022/03/02 10:05:21;;;;;;;21.15;14.45;;;5.90;99.90;;;;;;4999163;28;20219;-70
2022/03/02 10:07:57;;;;;;;19.15;14.18;;;6.00;99.90;;;;;;4999642;28;20199;-70
2022/03/02 10:10:28;;;;;;;18.00;13.60;;;6.10;99.90;;;;;;4999152;28;20306;-70
2022/03/02 10:12:58;;;;;;;19.25;15.18;;;6.20;99.90;;;;;;4997021;28;20261;-69
2022/03/02 10:15:32;;;;;;;20.90;15.43;;;6.30;99.90;;;;;;4999395;28;20282;-69
2022/03/02 10:18:07;;;;;;;18.17;13.68;;;6.30;99.90;;;;;;4997903;28;20260;-69
2022/03/02 10:20:38;;;;;;;21.40;13.50;;;6.30;99.90;;;;;;4998919;28;20223;-70
2022/03/02 10:23:25;;;;;;;22.83;14.30;;;6.40;99.90;;;;;;4999187;28;20210;-69
2022/03/02 10:26:02;;;;;;;19.67;13.55;;;6.40;99.90;;;;;;4999204;28;20297;-70
2022/03/02 10:28:32;;;;;;;20.50;12.60;;;6.50;99.90;;;;;;4998530;28;20195;-70
2022/03/02 10:31:26;;;;;;;20.63;15.45;;;6.50;99.90;;;;;;4998056;28;20910;-70
2022/03/02 10:33:57;;;;;;;26.90;15.77;;;6.60;99.90;;;;;;4998825;28;20202;-70
2022/03/02 10:36:27;;;;;;;25.05;14.93;;;6.70;99.90;;;;;;4997857;28;20842;-71
2022/03/02 10:39:06;;;;;;;21.17;15.52;;;6.70;99.90;;;;;;4998986;28;20227;-70
2022/03/02 10:41:39;;;;;;;19.98;14.63;;;6.70;99.90;;;;;;4998451;28;20206;-69
2022/03/02 10:44:16;;;;;;;24.20;14.98;;;6.70;99.90;;;;;;4998341;28;20203;-69
2022/03/02 10:46:51;;;;;;;23.15;14.18;;;6.70;99.90;;;;;;4998273;28;20792;-71
2022/03/02 10:49:20;;;;;;;18.17;12.93;;;6.80;99.90;;;;;;4999717;28;20236;-66
2022/03/02 10:51:49;;;;;;;19.63;13.85;;;6.80;99.90;;;;;;4998847;28;20217;-66
2022/03/02 10:54:20;;;;;;;21.50;13.23;;;6.80;99.90;;;;;;4998653;28;20222;-66
2022/03/02 10:56:52;;;;;;;18.95;14.38;;;6.80;99.90;;;;;;5000306;28;20194;-65
2022/03/02 10:59:23;;;;;;;14.48;11.40;;;6.90;99.90;;;;;;4999843;28;20710;-65
2022/03/02 11:01:52;;;;;;;20.85;13.48;;;6.90;99.90;;;;;;5000505;28;20237;-65
2022/03/02 11:04:23;;;;;;;16.35;13.20;;;6.90;99.90;;;;;;4999761;28;20200;-65
2022/03/02 11:06:54;;;;;;;17.60;13.48;;;7.00;99.90;;;;;;4998443;28;20304;-65
2022/03/02 11:09:48;;;;;;;15.70;13.05;;;7.00;99.90;;;;;;4989933;28;20210;-66
2022/03/02 11:12:21;;;;;;;17.80;12.13;;;7.10;99.90;;;;;;4997642;28;20195;-66
2022/03/02 11:14:56;;;;;;;19.58;13.52;;;7.20;99.90;;;;;;4995666;28;20326;-65
2022/03/02 11:17:26;;;;;;;23.65;13.48;;;7.20;99.90;;;;;;4994916;28;20190;-66
2022/03/02 11:19:57;;;;;;;17.98;12.05;;;7.10;99.90;;;;;;4997757;28;20740;-64
2022/03/02 11:22:27;;;;;;;16.73;12.63;;;7.10;99.90;;;;;;4994201;28;20927;-66
2022/03/02 11:24:57;;;;;;;15.57;11.82;;;7.20;99.90;;;;;;4997500;28;20230;-66
2022/03/02 11:27:36;;;;;;;14.55;12.32;;;7.20;99.90;;;;;;4994843;28;20215;-65
2022/03/02 11:30:11;;;;;;;20.67;12.35;;;7.20;99.90;;;;;;4992210;28;20333;-64
2022/03/02 11:32:41;;;;;;;17.00;11.50;;;7.20;99.90;;;;;;4997884;28;20230;-65
2022/03/02 11:35:19;;;;;;;19.45;13.00;;;7.20;99.90;;;;;;4997363;28;20277;-65
2022/03/02 11:37:57;;;;;;;18.75;13.57;;;7.30;99.90;;;;;;4978741;28;20206;-65
2022/03/02 11:40:40;;;;;;;19.83;13.88;;;7.30;99.90;;;;;;4978449;28;20251;-64
2022/03/02 11:43:17;;;;;;;17.55;13.30;;;7.40;99.90;;;;;;4982211;28;20869;-65
2022/03/02 11:45:56;;;;;;;17.30;12.90;;;7.50;99.90;;;;;;4995667;28;20203;-65
2022/03/02 11:48:26;;;;;;;22.27;13.13;;;7.50;99.90;;;;;;4995240;28;20247;-65
2022/03/02 11:51:05;;;;;;;19.63;12.95;;;7.50;99.90;;;;;;4997650;28;20233;-65
2022/03/02 11:53:37;;;;;;;17.05;12.88;;;7.60;99.90;;;;;;4996586;28;20269;-65
2022/03/02 11:56:09;;;;;;;17.00;12.70;;;7.70;99.90;;;;;;4998617;28;20206;-65
2022/03/02 11:58:56;;;;;;;19.25;13.02;;;7.70;99.90;;;;;;5001762;28;20191;-65
2022/03/02 12:01:45;;;;;;;19.67;14.25;;;7.80;99.90;;;;;;5001575;28;20714;-65
2022/03/02 12:04:29;;;;;;;20.20;14.25;;;7.90;99.90;;;;;;5002304;28;20213;-66
2022/03/02 12:06:57;;;;;;;18.38;13.52;;;7.90;99.90;;;;;;5014033;28;20222;-63
2022/03/02 12:09:27;;;;;;;16.40;12.63;;;7.80;99.90;;;;;;5007830;28;20412;-65
2022/03/02 12:12:11;;;;;;;22.27;14.73;;;7.90;99.90;;;;;;5001511;28;20741;-65
2022/03/02 12:14:44;;;;;;;20.95;15.20;;;8.00;99.90;;;;;;5001494;28;20226;-65
2022/03/02 12:17:17;;;;;;;21.52;15.32;;;8.00;99.90;;;;;;5000936;28;20234;-64
2022/03/02 12:19:49;;;;;;;26.38;16.40;;;8.10;99.90;;;;;;5000962;28;20223;-73
2022/03/02 12:22:18;;;;;;;27.70;17.35;;;8.10;99.90;;;;;;5001162;28;20689;-68
2022/03/02 12:24:47;;;;;;;23.33;16.77;;;8.20;99.90;;;;;;5001133;28;20353;-67
2022/03/02 12:27:16;;;;;;;25.25;16.30;;;8.10;99.90;;;;;;5001046;28;20229;-69
2022/03/02 12:29:53;;;;;;;22.88;16.20;;;8.10;99.90;;;;;;5001108;28;20277;-69
2022/03/02 12:32:22;;;;;;;19.83;15.52;;;8.10;99.90;;;;;;5000808;28;20210;-65
2022/03/02 12:34:52;;;;;;;22.92;15.57;;;8.10;99.90;;;;;;5000208;28;20211;-66
2022/03/02 12:37:22;;;;;;;24.02;17.33;;;8.10;99.90;;;;;;5001279;28;20704;-67
2022/03/02 12:39:51;;;;;;;21.10;15.23;;;8.00;99.90;;;;;;5000224;28;20770;-66
2022/03/02 12:42:20;;;;;;;18.45;14.65;;;8.10;99.90;;;;;;5000874;28;20822;-65
2022/03/02 12:44:54;;;;;;;21.15;15.63;;;8.20;99.90;;;;;;5000497;28;20207;-65
2022/03/02 12:47:25;;;;;;;22.65;15.85;;;8.30;99.90;;;;;;5000169;28;20763;-65
2022/03/02 12:49:54;;;;;;;23.25;17.15;;;8.30;99.90;;;;;;5000492;28;20755;-64